Terminal Aerodrome Forecast
Issued by NWS

Home | Current Version | Previous Version | Graphics & Text | Print | Product List | Glossary On
Versions: 1 2 3 4 5 6 7 8 9 10 11 12 13 14 15 16 17 18 19 20 21 22 23 24 25 26 27 28 29 30 31 32 33 34
000
FTUS43 KLOT 222100 AAA
TAFORD
TAF AMD
KORD 222100Z 2221/2324 27008KT P6SM SCT035
     FM222330 09008KT P6SM FEW040 SCT250
     FM230400 VRB02KT 6SM HZ SCT250
      TEMPO 2307/2311 4SM HZ
     FM231400 12005KT P6SM FEW040 SCT250
     FM232100 09007KT P6SM FEW040 SCT250=

USA.gov is the U.S. government's official web portal to all federal, state and local government web resources and services.